PWSweather.com
Personal Weather Stations
Station Observations
KMICHEBO10
Cordwood Point, Lake Huron, Cheboygan, MI 49721

Cordwood Point, Lake HuronCheboygan, MI 49721

Lat: 45.663372, Lon: -84.3327789

Elevation: 584

Station Type: Davis Vantage Pro2 Wireless

www.lakehuronweather.org

High Low Average
Temperature 53.3°F11.8°C 28.8°F-1.8°C 38.1°F3.4°C
Dew Point 35.8°F2.1°C 22.9°F-5.1°C 30.5°F-0.8°C
Winds 5.8 mph 9.3 kmh Calm Calm 1.0 mph ESE1.6 kmh ESE
Wind Gusts 10.4 mph16.7 kmh -- 2.0 mph3.2 kmh
Humidity 85% 44% 74%
Pressure 30.33 in1027.1 mb 30.14 in1020.7 mb -
Precipitation 0.00 in0.0 mm - -
Hour Temp Dew Point Humidity Winds Wind Gusts Pressure Precip Precip Rate Daily Precip Total
12:00 AM 36.2°F2.3°C 25.5°F-3.6°C 65% Calm Calm -- 30.33 in1027.1 mb - 0.00 in0.0 mm 0.00 in0.0 mm
12:10 AM 35.5°F1.9°C 24.2°F-4.3°C 63% Calm Calm -- 30.33 in1027.1 mb - 0.00 in0.0 mm 0.00 in0.0 mm
12:20 AM 35.2°F1.8°C 23.4°F-4.8°C 62% Calm Calm -- 30.32 in1026.8 mb - 0.00 in0.0 mm 0.00 in0.0 mm
12:30 AM 34.8°F1.6°C 23.1°F-4.9°C 62% Calm Calm -- 30.32 in1026.8 mb - 0.00 in0.0 mm 0.00 in0.0 mm
12:40 AM 34.4°F1.3°C 22.7°F-5.2°C 62% Calm Calm -- 30.32 in1026.8 mb - 0.00 in0.0 mm 0.00 in0.0 mm
12:50 AM 34.1°F1.2°C 22.1°F-5.5°C 61% Calm Calm -- 30.32 in1026.8 mb - 0.00 in0.0 mm 0.00 in0.0 mm
01:00 AM 33.8°F1.0°C 22.9°F-5.1°C 64% Calm Calm -- 30.32 in1026.8 mb - 0.00 in0.0 mm 0.00 in0.0 mm
01:10 AM 33.6°F0.9°C 24.5°F-4.2°C 69% Calm Calm -- 30.32 in1026.8 mb - 0.00 in0.0 mm 0.00 in0.0 mm
01:20 AM 33.3°F0.7°C 24.2°F-4.3°C 69% Calm Calm -- 30.32 in1026.8 mb - 0.00 in0.0 mm 0.00 in0.0 mm
01:30 AM 33.1°F0.6°C 24.4°F-4.2°C 70% Calm Calm -- 30.32 in1026.8 mb - 0.00 in0.0 mm 0.00 in0.0 mm
01:40 AM 33.1°F0.6°C 24.4°F-4.2°C 70% Calm Calm -- 30.32 in1026.8 mb - 0.00 in0.0 mm 0.00 in0.0 mm
01:50 AM 33.1°F0.6°C 24.7°F-4.1°C 71% Calm Calm -- 30.32 in1026.8 mb - 0.00 in0.0 mm 0.00 in0.0 mm
02:00 AM 33.1°F0.6°C 24.7°F-4.1°C 71% Calm Calm -- 30.32 in1026.8 mb - 0.00 in0.0 mm 0.00 in0.0 mm
02:10 AM 33.0°F0.6°C 25.0°F-3.9°C 72% Calm Calm -- 30.31 in1026.4 mb - 0.00 in0.0 mm 0.00 in0.0 mm
02:20 AM 33.0°F0.6°C 25.0°F-3.9°C 72% Calm Calm -- 30.31 in1026.4 mb - 0.00 in0.0 mm 0.00 in0.0 mm
02:30 AM 32.9°F0.5°C 24.5°F-4.2°C 71% Calm Calm -- 30.31 in1026.4 mb - 0.00 in0.0 mm 0.00 in0.0 mm
02:40 AM 32.7°F0.4°C 24.3°F-4.3°C 71% Calm Calm -- 30.31 in1026.4 mb - 0.00 in0.0 mm 0.00 in0.0 mm
02:50 AM 32.5°F0.3°C 25.1°F-3.8°C 74% Calm Calm -- 30.31 in1026.4 mb - 0.00 in0.0 mm 0.00 in0.0 mm
03:00 AM 32.3°F0.2°C 25.0°F-3.9°C 74% Calm Calm -- 30.31 in1026.4 mb - 0.00 in0.0 mm 0.00 in0.0 mm
03:10 AM 32.1°F0.1°C 25.1°F-3.8°C 75% Calm Calm -- 30.31 in1026.4 mb - 0.00 in0.0 mm 0.00 in0.0 mm
03:20 AM 31.9°F-0.1°C 24.5°F-4.2°C 74% Calm Calm -- 30.31 in1026.4 mb - 0.00 in0.0 mm 0.00 in0.0 mm
03:30 AM 31.6°F-0.2°C 23.9°F-4.5°C 73% Calm Calm -- 30.31 in1026.4 mb - 0.00 in0.0 mm 0.00 in0.0 mm
03:40 AM 31.4°F-0.3°C 24.1°F-4.4°C 74% Calm Calm -- 30.31 in1026.4 mb - 0.00 in0.0 mm 0.00 in0.0 mm
03:50 AM 31.1°F-0.5°C 23.5°F-4.7°C 73% Calm Calm -- 30.31 in1026.4 mb - 0.00 in0.0 mm 0.00 in0.0 mm
04:00 AM 30.8°F-0.7°C 23.2°F-4.9°C 73% Calm Calm -- 30.32 in1026.8 mb - 0.00 in0.0 mm 0.00 in0.0 mm
04:10 AM 30.8°F-0.7°C 24.7°F-4.1°C 78% Calm Calm -- 30.32 in1026.8 mb - 0.00 in0.0 mm 0.00 in0.0 mm
04:20 AM 30.7°F-0.7°C 24.3°F-4.3°C 77% Calm Calm -- 30.32 in1026.8 mb - 0.00 in0.0 mm 0.00 in0.0 mm
04:30 AM 30.5°F-0.8°C 24.1°F-4.4°C 77% Calm Calm -- 30.32 in1026.8 mb - 0.00 in0.0 mm 0.00 in0.0 mm
04:40 AM 30.3°F-0.9°C 23.6°F-4.7°C 76% Calm Calm -- 30.32 in1026.8 mb - 0.00 in0.0 mm 0.00 in0.0 mm
04:50 AM 30.3°F-0.9°C 23.6°F-4.7°C 76% Calm Calm -- 30.32 in1026.8 mb - 0.00 in0.0 mm 0.00 in0.0 mm
05:00 AM 30.1°F-1.1°C 24.1°F-4.4°C 78% Calm Calm -- 30.32 in1026.8 mb - 0.00 in0.0 mm 0.00 in0.0 mm
05:10 AM 29.9°F-1.2°C 23.9°F-4.5°C 78% Calm Calm -- 30.32 in1026.8 mb - 0.00 in0.0 mm 0.00 in0.0 mm
05:20 AM 29.9°F-1.2°C 24.1°F-4.4°C 79% Calm Calm -- 30.32 in1026.8 mb - 0.00 in0.0 mm 0.00 in0.0 mm
05:30 AM 29.8°F-1.2°C 23.5°F-4.7°C 77% Calm Calm -- 30.32 in1026.8 mb - 0.00 in0.0 mm 0.00 in0.0 mm
05:40 AM 29.8°F-1.2°C 23.8°F-4.6°C 78% Calm Calm -- 30.32 in1026.8 mb - 0.00 in0.0 mm 0.00 in0.0 mm
05:50 AM 29.7°F-1.3°C 24.0°F-4.4°C 79% Calm Calm -- 30.32 in1026.8 mb - 0.00 in0.0 mm 0.00 in0.0 mm
06:00 AM 29.6°F-1.3°C 24.2°F-4.3°C 80% Calm Calm -- 30.32 in1026.8 mb - 0.00 in0.0 mm 0.00 in0.0 mm
06:10 AM 29.4°F-1.4°C 23.4°F-4.8°C 78% Calm Calm -- 30.32 in1026.8 mb - 0.00 in0.0 mm 0.00 in0.0 mm
06:20 AM 29.2°F-1.6°C 23.8°F-4.6°C 80% Calm Calm -- 30.32 in1026.8 mb - 0.00 in0.0 mm 0.00 in0.0 mm
06:30 AM 29.0°F-1.7°C 23.6°F-4.7°C 80% Calm Calm -- 30.32 in1026.8 mb - 0.00 in0.0 mm 0.00 in0.0 mm
06:40 AM 28.9°F-1.7°C 23.8°F-4.6°C 81% Calm Calm -- 30.32 in1026.8 mb - 0.00 in0.0 mm 0.00 in0.0 mm
06:50 AM 28.8°F-1.8°C 24.0°F-4.4°C 82% Calm Calm -- 30.32 in1026.8 mb - 0.00 in0.0 mm 0.00 in0.0 mm
07:00 AM 28.9°F-1.7°C 24.1°F-4.4°C 82% Calm Calm -- 30.32 in1026.8 mb - 0.00 in0.0 mm 0.00 in0.0 mm
07:10 AM 29.1°F-1.6°C 24.9°F-3.9°C 84% Calm Calm -- 30.32 in1026.8 mb - 0.00 in0.0 mm 0.00 in0.0 mm
07:20 AM 29.4°F-1.4°C 24.0°F-4.4°C 80% Calm Calm -- 30.33 in1027.1 mb - 0.00 in0.0 mm 0.00 in0.0 mm
07:30 AM 29.9°F-1.2°C 25.1°F-3.8°C 82% Calm Calm -- 30.33 in1027.1 mb - 0.00 in0.0 mm 0.00 in0.0 mm
07:40 AM 30.5°F-0.8°C 25.7°F-3.5°C 82% Calm Calm -- 30.33 in1027.1 mb - 0.00 in0.0 mm 0.00 in0.0 mm
07:50 AM 31.3°F-0.4°C 25.8°F-3.4°C 80% Calm Calm -- 30.33 in1027.1 mb - 0.00 in0.0 mm 0.00 in0.0 mm
08:00 AM 32.0°F0.0°C 26.6°F-3.0°C 80% Calm Calm -- 30.33 in1027.1 mb - 0.00 in0.0 mm 0.00 in0.0 mm
08:10 AM 33.1°F0.6°C 27.6°F-2.4°C 80% Calm Calm -- 30.33 in1027.1 mb - 0.00 in0.0 mm 0.00 in0.0 mm
08:20 AM 34.4°F1.3°C 29.5°F-1.4°C 82% Calm Calm 1.2 mph1.9 kmh 30.33 in1027.1 mb - 0.00 in0.0 mm 0.00 in0.0 mm
08:30 AM 35.2°F1.8°C 30.0°F-1.1°C 81% Calm Calm -- 30.33 in1027.1 mb - 0.00 in0.0 mm 0.00 in0.0 mm
08:40 AM 36.1°F2.3°C 30.8°F-0.7°C 81% 1.2 mph E1.9 kmh E 1.2 mph1.9 kmh 30.33 in1027.1 mb - 0.00 in0.0 mm 0.00 in0.0 mm
08:50 AM 36.7°F2.6°C 31.4°F-0.3°C 81% Calm Calm -- 30.33 in1027.1 mb - 0.00 in0.0 mm 0.00 in0.0 mm
09:00 AM 37.3°F2.9°C 31.0°F-0.6°C 78% Calm Calm -- 30.32 in1026.8 mb - 0.00 in0.0 mm 0.00 in0.0 mm
09:10 AM 38.2°F3.4°C 32.6°F0.3°C 80% Calm Calm -- 30.32 in1026.8 mb - 0.00 in0.0 mm 0.00 in0.0 mm
09:20 AM 39.2°F4.0°C 32.9°F0.5°C 78% Calm Calm 2.3 mph3.7 kmh 30.32 in1026.8 mb - 0.00 in0.0 mm 0.00 in0.0 mm
09:30 AM 40.7°F4.8°C 33.3°F0.7°C 75% Calm Calm -- 30.31 in1026.4 mb - 0.00 in0.0 mm 0.00 in0.0 mm
09:40 AM 42.3°F5.7°C 34.3°F1.3°C 73% 4.6 mph NNW7.4 kmh NNW 8.1 mph13.0 kmh 30.31 in1026.4 mb - 0.00 in0.0 mm 0.00 in0.0 mm
09:50 AM 41.1°F5.1°C 33.8°F1.0°C 75% 1.2 mph N1.9 kmh N 2.3 mph3.7 kmh 30.31 in1026.4 mb - 0.00 in0.0 mm 0.00 in0.0 mm
10:00 AM 40.7°F4.8°C 33.4°F0.8°C 75% Calm Calm 2.3 mph3.7 kmh 30.31 in1026.4 mb - 0.00 in0.0 mm 0.00 in0.0 mm
10:10 AM 41.0°F5.0°C 33.3°F0.7°C 74% Calm Calm -- 30.30 in1026.1 mb - 0.00 in0.0 mm 0.00 in0.0 mm
10:20 AM 41.1°F5.1°C 33.1°F0.6°C 73% Calm Calm -- 30.30 in1026.1 mb - 0.00 in0.0 mm 0.00 in0.0 mm
10:30 AM 41.8°F5.4°C 33.8°F1.0°C 73% 1.2 mph N1.9 kmh N 3.5 mph5.6 kmh 30.30 in1026.1 mb - 0.00 in0.0 mm 0.00 in0.0 mm
10:40 AM 42.7°F5.9°C 33.6°F0.9°C 70% 1.2 mph N1.9 kmh N 3.5 mph5.6 kmh 30.30 in1026.1 mb - 0.00 in0.0 mm 0.00 in0.0 mm
10:50 AM 42.8°F6.0°C 33.3°F0.7°C 69% 2.3 mph NNE3.7 kmh NNE 4.6 mph7.4 kmh 30.30 in1026.1 mb - 0.00 in0.0 mm 0.00 in0.0 mm
11:00 AM 42.9°F6.1°C 33.4°F0.8°C 69% 1.2 mph NE1.9 kmh NE 2.3 mph3.7 kmh 30.30 in1026.1 mb - 0.00 in0.0 mm 0.00 in0.0 mm
11:10 AM 43.1°F6.2°C 33.6°F0.9°C 69% 2.3 mph NE3.7 kmh NE 3.5 mph5.6 kmh 30.29 in1025.7 mb - 0.00 in0.0 mm 0.00 in0.0 mm
11:20 AM 44.5°F6.9°C 34.2°F1.2°C 67% 2.3 mph NE3.7 kmh NE 4.6 mph7.4 kmh 30.29 in1025.7 mb - 0.00 in0.0 mm 0.00 in0.0 mm
11:30 AM 44.7°F7.1°C 34.4°F1.3°C 67% 1.2 mph NE1.9 kmh NE 3.5 mph5.6 kmh 30.29 in1025.7 mb - 0.00 in0.0 mm 0.00 in0.0 mm
11:40 AM 44.5°F6.9°C 34.2°F1.2°C 67% 2.3 mph NE3.7 kmh NE 4.6 mph7.4 kmh 30.29 in1025.7 mb - 0.00 in0.0 mm 0.00 in0.0 mm
11:50 AM 44.6°F7.0°C 33.9°F1.1°C 66% 3.5 mph NE5.6 kmh NE 4.6 mph7.4 kmh 30.29 in1025.7 mb - 0.00 in0.0 mm 0.00 in0.0 mm
12:00 PM 44.1°F6.7°C 33.8°F1.0°C 67% 2.3 mph NE3.7 kmh NE 3.5 mph5.6 kmh 30.28 in1025.4 mb - 0.00 in0.0 mm 0.00 in0.0 mm
12:10 PM 43.2°F6.2°C 34.1°F1.2°C 70% 3.5 mph NE5.6 kmh NE 4.6 mph7.4 kmh 30.28 in1025.4 mb - 0.00 in0.0 mm 0.00 in0.0 mm
12:20 PM 43.2°F6.2°C 33.7°F0.9°C 69% 3.5 mph NE5.6 kmh NE 3.5 mph5.6 kmh 30.28 in1025.4 mb - 0.00 in0.0 mm 0.00 in0.0 mm
12:30 PM 43.1°F6.2°C 34.3°F1.3°C 71% 3.5 mph NE5.6 kmh NE 5.8 mph9.3 kmh 30.27 in1025.1 mb - 0.00 in0.0 mm 0.00 in0.0 mm
12:40 PM 42.9°F6.1°C 34.1°F1.2°C 71% 3.5 mph NE5.6 kmh NE 6.9 mph11.1 kmh 30.27 in1025.1 mb - 0.00 in0.0 mm 0.00 in0.0 mm
12:50 PM 42.3°F5.7°C 33.6°F0.9°C 71% 4.6 mph ENE7.4 kmh ENE 6.9 mph11.1 kmh 30.27 in1025.1 mb - 0.00 in0.0 mm 0.00 in0.0 mm
01:00 PM 42.7°F5.9°C 34.3°F1.3°C 72% 1.2 mph NE1.9 kmh NE 3.5 mph5.6 kmh 30.27 in1025.1 mb - 0.00 in0.0 mm 0.00 in0.0 mm
01:10 PM 43.0°F6.1°C 34.2°F1.2°C 71% 4.6 mph NE7.4 kmh NE 5.8 mph9.3 kmh 30.26 in1024.7 mb - 0.00 in0.0 mm 0.00 in0.0 mm
01:20 PM 42.8°F6.0°C 34.4°F1.3°C 72% 4.6 mph NE7.4 kmh NE 6.9 mph11.1 kmh 30.26 in1024.7 mb - 0.00 in0.0 mm 0.00 in0.0 mm
01:30 PM 42.5°F5.8°C 35.1°F1.7°C 75% 2.3 mph NE3.7 kmh NE 3.5 mph5.6 kmh 30.26 in1024.7 mb - 0.00 in0.0 mm 0.00 in0.0 mm
01:40 PM 42.4°F5.8°C 35.0°F1.7°C 75% 5.8 mph NE9.3 kmh NE 5.8 mph9.3 kmh 30.25 in1024.4 mb - 0.00 in0.0 mm 0.00 in0.0 mm
01:50 PM 41.8°F5.4°C 35.1°F1.7°C 77% 2.3 mph ENE3.7 kmh ENE 4.6 mph7.4 kmh 30.25 in1024.4 mb - 0.00 in0.0 mm 0.00 in0.0 mm
02:00 PM 41.7°F5.4°C 35.3°F1.8°C 78% 3.5 mph NE5.6 kmh NE 4.6 mph7.4 kmh 30.24 in1024.0 mb - 0.00 in0.0 mm 0.00 in0.0 mm
02:10 PM 42.1°F5.6°C 35.1°F1.7°C 76% 4.6 mph NE7.4 kmh NE 5.8 mph9.3 kmh 30.24 in1024.0 mb - 0.00 in0.0 mm 0.00 in0.0 mm
02:20 PM 42.9°F6.1°C 35.8°F2.1°C 76% 2.3 mph E3.7 kmh E 3.5 mph5.6 kmh 30.24 in1024.0 mb - 0.00 in0.0 mm 0.00 in0.0 mm
02:30 PM 42.9°F6.1°C 35.2°F1.8°C 74% 3.5 mph ENE5.6 kmh ENE 3.5 mph5.6 kmh 30.24 in1024.0 mb - 0.00 in0.0 mm 0.00 in0.0 mm
02:40 PM 44.4°F6.9°C 35.2°F1.8°C 70% 2.3 mph ENE3.7 kmh ENE 5.8 mph9.3 kmh 30.23 in1023.7 mb - 0.00 in0.0 mm 0.00 in0.0 mm
02:50 PM 45.0°F7.2°C 34.7°F1.5°C 67% 4.6 mph ENE7.4 kmh ENE 6.9 mph11.1 kmh 30.23 in1023.7 mb - 0.00 in0.0 mm 0.00 in0.0 mm
03:00 PM 44.5°F6.9°C 34.6°F1.4°C 68% 5.8 mph NE9.3 kmh NE 9.2 mph14.8 kmh 30.23 in1023.7 mb - 0.00 in0.0 mm 0.00 in0.0 mm
03:10 PM 44.3°F6.8°C 34.8°F1.6°C 69% 4.6 mph ENE7.4 kmh ENE 6.9 mph11.1 kmh 30.22 in1023.4 mb - 0.00 in0.0 mm 0.00 in0.0 mm
03:20 PM 45.7°F7.6°C 35.4°F1.9°C 67% 3.5 mph ENE5.6 kmh ENE 4.6 mph7.4 kmh 30.22 in1023.4 mb - 0.00 in0.0 mm 0.00 in0.0 mm
03:30 PM 45.7°F7.6°C 35.3°F1.8°C 67% 3.5 mph ENE5.6 kmh ENE 4.6 mph7.4 kmh 30.22 in1023.4 mb - 0.00 in0.0 mm 0.00 in0.0 mm
03:40 PM 44.5°F6.9°C 33.8°F1.0°C 66% 4.6 mph ENE7.4 kmh ENE 5.8 mph9.3 kmh 30.22 in1023.4 mb - 0.00 in0.0 mm 0.00 in0.0 mm
03:50 PM 44.0°F6.7°C 33.7°F0.9°C 67% 4.6 mph ENE7.4 kmh ENE 5.8 mph9.3 kmh 30.22 in1023.4 mb - 0.00 in0.0 mm 0.00 in0.0 mm
04:00 PM 44.2°F6.8°C 34.3°F1.3°C 68% 4.6 mph E7.4 kmh E 10.4 mph16.7 kmh 30.21 in1023.0 mb - 0.00 in0.0 mm 0.00 in0.0 mm
04:10 PM 45.8°F7.7°C 35.1°F1.7°C 66% 1.2 mph ESE1.9 kmh ESE 2.3 mph3.7 kmh 30.20 in1022.7 mb - 0.00 in0.0 mm 0.00 in0.0 mm
04:20 PM 48.1°F8.9°C 34.9°F1.6°C 60% 3.5 mph ENE5.6 kmh ENE 4.6 mph7.4 kmh 30.20 in1022.7 mb - 0.00 in0.0 mm 0.00 in0.0 mm
04:30 PM 48.3°F9.1°C 34.2°F1.2°C 58% 3.5 mph SE5.6 kmh SE 4.6 mph7.4 kmh 30.20 in1022.7 mb - 0.00 in0.0 mm 0.00 in0.0 mm
04:40 PM 49.8°F9.9°C 34.8°F1.6°C 56% 2.3 mph SE3.7 kmh SE 3.5 mph5.6 kmh 30.19 in1022.4 mb - 0.00 in0.0 mm 0.00 in0.0 mm
04:50 PM 53.3°F11.8°C 31.9°F-0.1°C 44% 3.5 mph E5.6 kmh E 4.6 mph7.4 kmh 30.19 in1022.4 mb - 0.00 in0.0 mm 0.00 in0.0 mm
05:00 PM 49.8°F9.9°C 34.3°F1.3°C 55% 2.3 mph NE3.7 kmh NE 4.6 mph7.4 kmh 30.19 in1022.4 mb - 0.00 in0.0 mm 0.00 in0.0 mm
05:10 PM 46.4°F8.0°C 34.5°F1.4°C 63% 3.5 mph NE5.6 kmh NE 5.8 mph9.3 kmh 30.19 in1022.4 mb - 0.00 in0.0 mm 0.00 in0.0 mm
05:20 PM 43.5°F6.4°C 34.4°F1.3°C 70% 3.5 mph ENE5.6 kmh ENE 3.5 mph5.6 kmh 30.18 in1022.0 mb - 0.00 in0.0 mm 0.00 in0.0 mm
05:30 PM 43.3°F6.3°C 34.2°F1.2°C 70% 4.6 mph NE7.4 kmh NE 6.9 mph11.1 kmh 30.18 in1022.0 mb - 0.00 in0.0 mm 0.00 in0.0 mm
05:40 PM 41.8°F5.4°C 34.4°F1.3°C 75% 2.3 mph ENE3.7 kmh ENE 4.6 mph7.4 kmh 30.19 in1022.4 mb - 0.00 in0.0 mm 0.00 in0.0 mm
05:50 PM 40.5°F4.7°C 34.2°F1.2°C 78% 3.5 mph NE5.6 kmh NE 4.6 mph7.4 kmh 30.19 in1022.4 mb - 0.00 in0.0 mm 0.00 in0.0 mm
06:00 PM 40.2°F4.6°C 34.2°F1.2°C 79% 3.5 mph E5.6 kmh E 5.8 mph9.3 kmh 30.19 in1022.4 mb - 0.00 in0.0 mm 0.00 in0.0 mm
06:10 PM 39.8°F4.3°C 33.8°F1.0°C 79% 2.3 mph ENE3.7 kmh ENE 3.5 mph5.6 kmh 30.19 in1022.4 mb - 0.00 in0.0 mm 0.00 in0.0 mm
06:20 PM 39.4°F4.1°C 34.7°F1.5°C 83% 1.2 mph ESE1.9 kmh ESE 2.3 mph3.7 kmh 30.19 in1022.4 mb - 0.00 in0.0 mm 0.00 in0.0 mm
06:30 PM 39.3°F4.1°C 34.6°F1.4°C 83% 1.2 mph E1.9 kmh E 1.2 mph1.9 kmh 30.19 in1022.4 mb - 0.00 in0.0 mm 0.00 in0.0 mm
06:40 PM 39.0°F3.9°C 34.6°F1.4°C 84% Calm Calm -- 30.19 in1022.4 mb - 0.00 in0.0 mm 0.00 in0.0 mm
06:50 PM 39.1°F3.9°C 34.7°F1.5°C 84% Calm Calm 2.3 mph3.7 kmh 30.19 in1022.4 mb - 0.00 in0.0 mm 0.00 in0.0 mm
07:00 PM 39.0°F3.9°C 34.3°F1.3°C 83% 1.2 mph E1.9 kmh E 2.3 mph3.7 kmh 30.18 in1022.0 mb - 0.00 in0.0 mm 0.00 in0.0 mm
07:10 PM 38.8°F3.8°C 34.1°F1.2°C 83% Calm Calm 1.2 mph1.9 kmh 30.18 in1022.0 mb - 0.00 in0.0 mm 0.00 in0.0 mm
07:20 PM 38.5°F3.6°C 33.8°F1.0°C 83% 1.2 mph ENE1.9 kmh ENE 3.5 mph5.6 kmh 30.18 in1022.0 mb - 0.00 in0.0 mm 0.00 in0.0 mm
07:30 PM 38.4°F3.6°C 33.7°F0.9°C 83% 1.2 mph ENE1.9 kmh ENE 2.3 mph3.7 kmh 30.17 in1021.7 mb - 0.00 in0.0 mm 0.00 in0.0 mm
07:40 PM 38.4°F3.6°C 33.4°F0.8°C 82% 1.2 mph E1.9 kmh E 2.3 mph3.7 kmh 30.18 in1022.0 mb - 0.00 in0.0 mm 0.00 in0.0 mm
07:50 PM 38.5°F3.6°C 33.2°F0.7°C 81% 1.2 mph E1.9 kmh E 2.3 mph3.7 kmh 30.17 in1021.7 mb - 0.00 in0.0 mm 0.00 in0.0 mm
08:00 PM 38.5°F3.6°C 33.5°F0.8°C 82% Calm Calm 1.2 mph1.9 kmh 30.17 in1021.7 mb - 0.00 in0.0 mm 0.00 in0.0 mm
08:10 PM 38.2°F3.4°C 33.2°F0.7°C 82% Calm Calm 1.2 mph1.9 kmh 30.16 in1021.3 mb - 0.00 in0.0 mm 0.00 in0.0 mm
08:20 PM 38.1°F3.4°C 33.1°F0.6°C 82% Calm Calm -- 30.17 in1021.7 mb - 0.00 in0.0 mm 0.00 in0.0 mm
08:30 PM 37.8°F3.2°C 32.8°F0.4°C 82% Calm Calm 1.2 mph1.9 kmh 30.17 in1021.7 mb - 0.00 in0.0 mm 0.00 in0.0 mm
08:40 PM 37.6°F3.1°C 32.6°F0.3°C 82% Calm Calm -- 30.17 in1021.7 mb - 0.00 in0.0 mm 0.00 in0.0 mm
08:50 PM 37.2°F2.9°C 32.5°F0.3°C 83% 1.2 mph E1.9 kmh E 1.2 mph1.9 kmh 30.17 in1021.7 mb - 0.00 in0.0 mm 0.00 in0.0 mm
09:00 PM 36.8°F2.7°C 32.1°F0.1°C 83% Calm Calm -- 30.17 in1021.7 mb - 0.00 in0.0 mm 0.00 in0.0 mm
09:10 PM 36.3°F2.4°C 32.0°F0.0°C 84% Calm Calm 1.2 mph1.9 kmh 30.16 in1021.3 mb - 0.00 in0.0 mm 0.00 in0.0 mm
09:20 PM 36.0°F2.2°C 31.9°F-0.1°C 85% Calm Calm 1.2 mph1.9 kmh 30.16 in1021.3 mb - 0.00 in0.0 mm 0.00 in0.0 mm
09:30 PM 36.0°F2.2°C 31.6°F-0.2°C 84% 1.2 mph ESE1.9 kmh ESE 3.5 mph5.6 kmh 30.16 in1021.3 mb - 0.00 in0.0 mm 0.00 in0.0 mm
09:40 PM 37.0°F2.8°C 31.4°F-0.3°C 80% 1.2 mph SE1.9 kmh SE 2.3 mph3.7 kmh 30.16 in1021.3 mb - 0.00 in0.0 mm 0.00 in0.0 mm
09:50 PM 38.2°F3.4°C 30.9°F-0.6°C 75% 1.2 mph ESE1.9 kmh ESE 1.2 mph1.9 kmh 30.15 in1021.0 mb - 0.00 in0.0 mm 0.00 in0.0 mm
10:00 PM 39.2°F4.0°C 30.6°F-0.8°C 71% 1.2 mph SE1.9 kmh SE 1.2 mph1.9 kmh 30.16 in1021.3 mb - 0.00 in0.0 mm 0.00 in0.0 mm
10:10 PM 39.4°F4.1°C 30.4°F-0.9°C 70% Calm Calm -- 30.16 in1021.3 mb - 0.00 in0.0 mm 0.00 in0.0 mm
10:20 PM 39.2°F4.0°C 30.6°F-0.8°C 71% Calm Calm -- 30.16 in1021.3 mb - 0.00 in0.0 mm 0.00 in0.0 mm
10:30 PM 38.3°F3.5°C 30.4°F-0.9°C 73% Calm Calm -- 30.15 in1021.0 mb - 0.00 in0.0 mm 0.00 in0.0 mm
10:40 PM 38.1°F3.4°C 30.9°F-0.6°C 75% Calm Calm -- 30.16 in1021.3 mb - 0.00 in0.0 mm 0.00 in0.0 mm
10:50 PM 37.7°F3.2°C 30.8°F-0.7°C 76% Calm Calm 1.2 mph1.9 kmh 30.15 in1021.0 mb - 0.00 in0.0 mm 0.00 in0.0 mm
11:00 PM 37.5°F3.1°C 30.6°F-0.8°C 76% Calm Calm 1.2 mph1.9 kmh 30.15 in1021.0 mb - 0.00 in0.0 mm 0.00 in0.0 mm
11:10 PM 37.4°F3.0°C 30.5°F-0.8°C 76% Calm Calm -- 30.15 in1021.0 mb - 0.00 in0.0 mm 0.00 in0.0 mm
11:20 PM 37.6°F3.1°C 30.1°F-1.1°C 74% Calm Calm 1.2 mph1.9 kmh 30.15 in1021.0 mb - 0.00 in0.0 mm 0.00 in0.0 mm
11:30 PM 38.2°F3.4°C 30.6°F-0.8°C 74% Calm Calm 2.3 mph3.7 kmh 30.15 in1021.0 mb - 0.00 in0.0 mm 0.00 in0.0 mm
11:40 PM 38.9°F3.8°C 30.9°F-0.6°C 73% 2.3 mph SE3.7 kmh SE 4.6 mph7.4 kmh 30.14 in1020.7 mb - 0.00 in0.0 mm 0.00 in0.0 mm
11:50 PM 40.1°F4.5°C 30.8°F-0.7°C 69% 1.2 mph SE1.9 kmh SE 2.3 mph3.7 kmh 30.14 in1020.7 mb - 0.00 in0.0 mm 0.00 in0.0 mm